sensor_id;sensor_type;location;lat;lon;timestamp;P1;durP1;ratioP1;P2;durP2;ratioP2
37231;SDS011;23125;48.156;15.954;2023-07-31T00:02:15;2.00;;;1.13;;
37231;SDS011;23125;48.156;15.954;2023-07-31T00:04:41;2.08;;;1.33;;
37231;SDS011;23125;48.156;15.954;2023-07-31T00:07:06;1.52;;;0.95;;
37231;SDS011;23125;48.156;15.954;2023-07-31T00:09:32;2.55;;;1.45;;
37231;SDS011;23125;48.156;15.954;2023-07-31T00:11:59;1.75;;;1.23;;
37231;SDS011;23125;48.156;15.954;2023-07-31T00:14:25;3.17;;;1.30;;
37231;SDS011;23125;48.156;15.954;2023-07-31T00:16:51;1.48;;;0.98;;
37231;SDS011;23125;48.156;15.954;2023-07-31T00:19:16;2.47;;;1.42;;
37231;SDS011;23125;48.156;15.954;2023-07-31T00:21:43;2.38;;;1.17;;
37231;SDS011;23125;48.156;15.954;2023-07-31T00:24:09;3.55;;;1.67;;
37231;SDS011;23125;48.156;15.954;2023-07-31T00:26:35;2.00;;;0.88;;
37231;SDS011;23125;48.156;15.954;2023-07-31T00:29:01;1.20;;;0.95;;
37231;SDS011;23125;48.156;15.954;2023-07-31T00:31:27;2.38;;;1.60;;
37231;SDS011;23125;48.156;15.954;2023-07-31T00:33:53;3.95;;;1.67;;
37231;SDS011;23125;48.156;15.954;2023-07-31T00:36:18;2.25;;;1.40;;
37231;SDS011;23125;48.156;15.954;2023-07-31T00:38:44;3.28;;;1.50;;
37231;SDS011;23125;48.156;15.954;2023-07-31T00:41:10;3.08;;;1.13;;
37231;SDS011;23125;48.156;15.954;2023-07-31T00:43:36;2.83;;;1.33;;
37231;SDS011;23125;48.156;15.954;2023-07-31T00:46:02;2.45;;;1.30;;
37231;SDS011;23125;48.156;15.954;2023-07-31T00:48:28;1.52;;;1.30;;
37231;SDS011;23125;48.156;15.954;2023-07-31T00:50:54;2.40;;;1.20;;
37231;SDS011;23125;48.156;15.954;2023-07-31T00:53:20;1.52;;;0.90;;
37231;SDS011;23125;48.156;15.954;2023-07-31T00:55:46;4.80;;;1.40;;
37231;SDS011;23125;48.156;15.954;2023-07-31T00:58:12;3.20;;;1.80;;
37231;SDS011;23125;48.156;15.954;2023-07-31T01:00:38;3.58;;;1.63;;
37231;SDS011;23125;48.156;15.954;2023-07-31T01:03:03;1.58;;;1.17;;
37231;SDS011;23125;48.156;15.954;2023-07-31T01:05:38;3.35;;;1.38;;
37231;SDS011;23125;48.156;15.954;2023-07-31T01:11:08;2.88;;;1.27;;
37231;SDS011;23125;48.156;15.954;2023-07-31T01:13:43;2.65;;;1.75;;
37231;SDS011;23125;48.156;15.954;2023-07-31T01:16:11;2.83;;;1.42;;
37231;SDS011;23125;48.156;15.954;2023-07-31T01:18:37;2.35;;;1.60;;
37231;SDS011;23125;48.156;15.954;2023-07-31T01:21:21;2.38;;;1.42;;
37231;SDS011;23125;48.156;15.954;2023-07-31T01:26:30;2.20;;;1.70;;
37231;SDS011;23125;48.156;15.954;2023-07-31T01:31:33;2.28;;;1.77;;
37231;SDS011;23125;48.156;15.954;2023-07-31T01:34:01;3.13;;;1.65;;
37231;SDS011;23125;48.156;15.954;2023-07-31T01:36:28;2.53;;;1.60;;
37231;SDS011;23125;48.156;15.954;2023-07-31T01:39:00;3.67;;;2.17;;
37231;SDS011;23125;48.156;15.954;2023-07-31T01:41:26;1.85;;;1.45;;
37231;SDS011;23125;48.156;15.954;2023-07-31T01:43:53;3.08;;;1.90;;
37231;SDS011;23125;48.156;15.954;2023-07-31T01:46:19;3.40;;;1.50;;
37231;SDS011;23125;48.156;15.954;2023-07-31T01:48:44;2.85;;;1.70;;
37231;SDS011;23125;48.156;15.954;2023-07-31T01:51:10;1.95;;;1.45;;
37231;SDS011;23125;48.156;15.954;2023-07-31T01:53:36;2.53;;;2.15;;
37231;SDS011;23125;48.156;15.954;2023-07-31T01:56:02;2.83;;;1.70;;
37231;SDS011;23125;48.156;15.954;2023-07-31T01:58:28;3.72;;;1.90;;
37231;SDS011;23125;48.156;15.954;2023-07-31T02:00:54;4.35;;;2.33;;
37231;SDS011;23125;48.156;15.954;2023-07-31T02:03:19;2.50;;;1.70;;
37231;SDS011;23125;48.156;15.954;2023-07-31T02:05:46;3.85;;;1.65;;
37231;SDS011;23125;48.156;15.954;2023-07-31T02:08:13;2.17;;;1.42;;
37231;SDS011;23125;48.156;15.954;2023-07-31T02:10:39;2.55;;;1.70;;
37231;SDS011;23125;48.156;15.954;2023-07-31T02:13:06;2.22;;;1.40;;
37231;SDS011;23125;48.156;15.954;2023-07-31T02:15:32;3.05;;;1.63;;
37231;SDS011;23125;48.156;15.954;2023-07-31T02:17:58;2.08;;;1.60;;
37231;SDS011;23125;48.156;15.954;2023-07-31T02:20:24;2.75;;;1.58;;
37231;SDS011;23125;48.156;15.954;2023-07-31T02:22:50;2.17;;;1.55;;
37231;SDS011;23125;48.156;15.954;2023-07-31T02:25:16;2.22;;;1.27;;
37231;SDS011;23125;48.156;15.954;2023-07-31T02:27:42;5.05;;;1.42;;
37231;SDS011;23125;48.156;15.954;2023-07-31T02:30:08;2.58;;;1.50;;
37231;SDS011;23125;48.156;15.954;2023-07-31T02:32:35;2.35;;;1.55;;
37231;SDS011;23125;48.156;15.954;2023-07-31T02:35:00;3.75;;;1.50;;
37231;SDS011;23125;48.156;15.954;2023-07-31T02:37:26;2.58;;;1.70;;
37231;SDS011;23125;48.156;15.954;2023-07-31T02:39:54;3.35;;;1.80;;
37231;SDS011;23125;48.156;15.954;2023-07-31T02:42:20;2.08;;;1.40;;
37231;SDS011;23125;48.156;15.954;2023-07-31T02:44:46;1.65;;;1.45;;
37231;SDS011;23125;48.156;15.954;2023-07-31T02:47:12;2.63;;;1.70;;
37231;SDS011;23125;48.156;15.954;2023-07-31T02:49:38;3.40;;;1.58;;
37231;SDS011;23125;48.156;15.954;2023-07-31T02:52:03;2.72;;;1.33;;
37231;SDS011;23125;48.156;15.954;2023-07-31T02:54:29;2.67;;;1.70;;
37231;SDS011;23125;48.156;15.954;2023-07-31T02:56:55;2.03;;;1.13;;
37231;SDS011;23125;48.156;15.954;2023-07-31T02:59:21;2.05;;;1.50;;
37231;SDS011;23125;48.156;15.954;2023-07-31T03:01:47;3.13;;;1.38;;
37231;SDS011;23125;48.156;15.954;2023-07-31T03:04:13;2.28;;;1.88;;
37231;SDS011;23125;48.156;15.954;2023-07-31T03:06:39;1.95;;;1.30;;
37231;SDS011;23125;48.156;15.954;2023-07-31T03:09:04;2.67;;;1.58;;
37231;SDS011;23125;48.156;15.954;2023-07-31T03:11:30;2.75;;;1.42;;
37231;SDS011;23125;48.156;15.954;2023-07-31T03:13:56;2.13;;;1.27;;
37231;SDS011;23125;48.156;15.954;2023-07-31T03:16:22;5.53;;;1.63;;
37231;SDS011;23125;48.156;15.954;2023-07-31T03:18:48;2.90;;;1.48;;
37231;SDS011;23125;48.156;15.954;2023-07-31T03:21:14;2.25;;;1.65;;
37231;SDS011;23125;48.156;15.954;2023-07-31T03:23:40;3.45;;;1.30;;
37231;SDS011;23125;48.156;15.954;2023-07-31T03:26:06;3.17;;;1.35;;
37231;SDS011;23125;48.156;15.954;2023-07-31T03:28:33;2.63;;;1.38;;
37231;SDS011;23125;48.156;15.954;2023-07-31T03:30:59;2.72;;;1.45;;
37231;SDS011;23125;48.156;15.954;2023-07-31T03:33:25;1.58;;;1.30;;
37231;SDS011;23125;48.156;15.954;2023-07-31T03:35:51;2.28;;;1.48;;
37231;SDS011;23125;48.156;15.954;2023-07-31T03:38:19;2.75;;;1.50;;
37231;SDS011;23125;48.156;15.954;2023-07-31T03:40:45;2.90;;;1.27;;
37231;SDS011;23125;48.156;15.954;2023-07-31T03:43:11;3.13;;;1.50;;
37231;SDS011;23125;48.156;15.954;2023-07-31T03:45:38;3.83;;;1.65;;
37231;SDS011;23125;48.156;15.954;2023-07-31T03:48:04;2.10;;;0.93;;
37231;SDS011;23125;48.156;15.954;2023-07-31T03:50:30;1.67;;;1.20;;
37231;SDS011;23125;48.156;15.954;2023-07-31T03:52:56;1.80;;;1.23;;
37231;SDS011;23125;48.156;15.954;2023-07-31T03:55:21;4.15;;;1.20;;
37231;SDS011;23125;48.156;15.954;2023-07-31T03:57:47;1.73;;;1.20;;
37231;SDS011;23125;48.156;15.954;2023-07-31T04:00:13;2.28;;;1.30;;
37231;SDS011;23125;48.156;15.954;2023-07-31T04:02:39;2.30;;;1.40;;
37231;SDS011;23125;48.156;15.954;2023-07-31T04:05:05;2.17;;;1.48;;
37231;SDS011;23125;48.156;15.954;2023-07-31T04:07:32;3.50;;;1.50;;
37231;SDS011;23125;48.156;15.954;2023-07-31T04:09:57;3.22;;;1.25;;
37231;SDS011;23125;48.156;15.954;2023-07-31T04:12:23;3.70;;;1.35;;
37231;SDS011;23125;48.156;15.954;2023-07-31T04:14:49;3.30;;;1.30;;
37231;SDS011;23125;48.156;15.954;2023-07-31T04:17:15;2.90;;;1.50;;
37231;SDS011;23125;48.156;15.954;2023-07-31T04:19:42;1.33;;;1.00;;
37231;SDS011;23125;48.156;15.954;2023-07-31T04:22:08;3.08;;;1.23;;
37231;SDS011;23125;48.156;15.954;2023-07-31T04:24:34;2.95;;;1.50;;
37231;SDS011;23125;48.156;15.954;2023-07-31T04:27:00;5.70;;;1.40;;
37231;SDS011;23125;48.156;15.954;2023-07-31T04:29:25;2.55;;;1.40;;
37231;SDS011;23125;48.156;15.954;2023-07-31T04:31:51;2.85;;;1.33;;
37231;SDS011;23125;48.156;15.954;2023-07-31T04:34:17;3.97;;;2.13;;
37231;SDS011;23125;48.156;15.954;2023-07-31T04:36:43;3.25;;;1.50;;
37231;SDS011;23125;48.156;15.954;2023-07-31T04:39:09;2.40;;;1.35;;
37231;SDS011;23125;48.156;15.954;2023-07-31T04:41:35;1.70;;;1.13;;
37231;SDS011;23125;48.156;15.954;2023-07-31T04:44:01;2.97;;;1.58;;
37231;SDS011;23125;48.156;15.954;2023-07-31T04:46:29;1.95;;;1.40;;
37231;SDS011;23125;48.156;15.954;2023-07-31T04:48:55;3.95;;;1.63;;
37231;SDS011;23125;48.156;15.954;2023-07-31T04:51:22;2.90;;;1.40;;
37231;SDS011;23125;48.156;15.954;2023-07-31T04:53:48;2.45;;;1.55;;
37231;SDS011;23125;48.156;15.954;2023-07-31T04:56:15;3.20;;;1.60;;
37231;SDS011;23125;48.156;15.954;2023-07-31T04:58:41;2.90;;;1.33;;
37231;SDS011;23125;48.156;15.954;2023-07-31T05:01:07;3.97;;;1.73;;
37231;SDS011;23125;48.156;15.954;2023-07-31T05:03:32;2.22;;;1.50;;
37231;SDS011;23125;48.156;15.954;2023-07-31T05:05:58;2.97;;;1.40;;
37231;SDS011;23125;48.156;15.954;2023-07-31T05:08:24;2.25;;;1.65;;
37231;SDS011;23125;48.156;15.954;2023-07-31T05:10:50;2.80;;;1.70;;
37231;SDS011;23125;48.156;15.954;2023-07-31T05:13:16;2.85;;;1.58;;
37231;SDS011;23125;48.156;15.954;2023-07-31T05:15:42;1.90;;;1.23;;
37231;SDS011;23125;48.156;15.954;2023-07-31T05:18:08;1.67;;;1.05;;
37231;SDS011;23125;48.156;15.954;2023-07-31T05:20:34;3.15;;;1.42;;
37231;SDS011;23125;48.156;15.954;2023-07-31T05:23:00;2.75;;;1.40;;
37231;SDS011;23125;48.156;15.954;2023-07-31T05:25:25;1.80;;;1.20;;
37231;SDS011;23125;48.156;15.954;2023-07-31T05:27:51;4.05;;;1.20;;
37231;SDS011;23125;48.156;15.954;2023-07-31T05:30:17;2.58;;;1.33;;
37231;SDS011;23125;48.156;15.954;2023-07-31T05:32:43;2.05;;;1.30;;
37231;SDS011;23125;48.156;15.954;2023-07-31T05:35:09;2.90;;;1.30;;
37231;SDS011;23125;48.156;15.954;2023-07-31T05:37:35;3.72;;;0.95;;
37231;SDS011;23125;48.156;15.954;2023-07-31T05:40:00;5.15;;;1.38;;
37231;SDS011;23125;48.156;15.954;2023-07-31T05:42:26;1.90;;;1.02;;
37231;SDS011;23125;48.156;15.954;2023-07-31T05:44:52;2.03;;;0.93;;
37231;SDS011;23125;48.156;15.954;2023-07-31T05:47:18;2.10;;;1.13;;
37231;SDS011;23125;48.156;15.954;2023-07-31T05:49:44;2.20;;;1.17;;
37231;SDS011;23125;48.156;15.954;2023-07-31T05:52:09;3.30;;;1.42;;
37231;SDS011;23125;48.156;15.954;2023-07-31T05:54:35;2.08;;;1.02;;
37231;SDS011;23125;48.156;15.954;2023-07-31T05:57:01;3.05;;;1.13;;
37231;SDS011;23125;48.156;15.954;2023-07-31T05:59:27;1.50;;;1.13;;
37231;SDS011;23125;48.156;15.954;2023-07-31T06:01:53;2.72;;;1.00;;
37231;SDS011;23125;48.156;15.954;2023-07-31T06:04:18;2.97;;;1.38;;
37231;SDS011;23125;48.156;15.954;2023-07-31T06:06:44;1.90;;;0.95;;
37231;SDS011;23125;48.156;15.954;2023-07-31T06:09:10;3.13;;;1.27;;
37231;SDS011;23125;48.156;15.954;2023-07-31T06:11:37;3.92;;;1.35;;
37231;SDS011;23125;48.156;15.954;2023-07-31T06:14:02;4.35;;;1.30;;
37231;SDS011;23125;48.156;15.954;2023-07-31T06:16:28;3.60;;;1.42;;
37231;SDS011;23125;48.156;15.954;2023-07-31T06:18:54;2.25;;;1.05;;
37231;SDS011;23125;48.156;15.954;2023-07-31T06:21:20;2.78;;;1.20;;
37231;SDS011;23125;48.156;15.954;2023-07-31T06:23:46;2.33;;;1.23;;
37231;SDS011;23125;48.156;15.954;2023-07-31T06:26:11;3.20;;;1.10;;
37231;SDS011;23125;48.156;15.954;2023-07-31T06:28:37;2.38;;;1.40;;
37231;SDS011;23125;48.156;15.954;2023-07-31T06:31:03;2.58;;;1.23;;
37231;SDS011;23125;48.156;15.954;2023-07-31T06:33:29;2.13;;;1.10;;
37231;SDS011;23125;48.156;15.954;2023-07-31T06:35:55;4.40;;;1.33;;
37231;SDS011;23125;48.156;15.954;2023-07-31T06:38:22;3.13;;;1.25;;
37231;SDS011;23125;48.156;15.954;2023-07-31T06:40:50;2.33;;;1.10;;
37231;SDS011;23125;48.156;15.954;2023-07-31T06:43:16;2.58;;;1.20;;
37231;SDS011;23125;48.156;15.954;2023-07-31T06:45:42;2.50;;;0.95;;
37231;SDS011;23125;48.156;15.954;2023-07-31T06:48:07;3.03;;;1.10;;
37231;SDS011;23125;48.156;15.954;2023-07-31T06:50:33;1.88;;;1.00;;
37231;SDS011;23125;48.156;15.954;2023-07-31T06:52:59;3.03;;;1.13;;
37231;SDS011;23125;48.156;15.954;2023-07-31T06:55:26;2.90;;;1.30;;
37231;SDS011;23125;48.156;15.954;2023-07-31T06:57:53;2.50;;;1.20;;
37231;SDS011;23125;48.156;15.954;2023-07-31T07:00:20;2.65;;;1.15;;
37231;SDS011;23125;48.156;15.954;2023-07-31T07:02:47;3.25;;;1.20;;
37231;SDS011;23125;48.156;15.954;2023-07-31T07:05:14;2.55;;;1.00;;
37231;SDS011;23125;48.156;15.954;2023-07-31T07:07:41;3.95;;;1.00;;
37231;SDS011;23125;48.156;15.954;2023-07-31T07:10:07;2.38;;;0.90;;
37231;SDS011;23125;48.156;15.954;2023-07-31T07:12:34;2.35;;;0.90;;
37231;SDS011;23125;48.156;15.954;2023-07-31T07:15:00;2.45;;;1.08;;
37231;SDS011;23125;48.156;15.954;2023-07-31T07:17:28;2.50;;;0.93;;
37231;SDS011;23125;48.156;15.954;2023-07-31T07:19:57;2.95;;;1.08;;
37231;SDS011;23125;48.156;15.954;2023-07-31T07:22:24;2.42;;;0.90;;
37231;SDS011;23125;48.156;15.954;2023-07-31T07:24:51;1.88;;;1.00;;
37231;SDS011;23125;48.156;15.954;2023-07-31T07:27:17;5.50;;;1.17;;
37231;SDS011;23125;48.156;15.954;2023-07-31T07:29:42;4.00;;;1.02;;
37231;SDS011;23125;48.156;15.954;2023-07-31T07:32:08;3.78;;;1.40;;
37231;SDS011;23125;48.156;15.954;2023-07-31T07:34:34;3.80;;;1.02;;
37231;SDS011;23125;48.156;15.954;2023-07-31T07:37:00;3.47;;;1.00;;
37231;SDS011;23125;48.156;15.954;2023-07-31T07:39:26;1.52;;;1.10;;
37231;SDS011;23125;48.156;15.954;2023-07-31T07:41:52;1.92;;;0.93;;
37231;SDS011;23125;48.156;15.954;2023-07-31T07:44:19;3.35;;;0.90;;
37231;SDS011;23125;48.156;15.954;2023-07-31T07:46:45;2.17;;;1.00;;
37231;SDS011;23125;48.156;15.954;2023-07-31T07:49:10;3.35;;;0.93;;
37231;SDS011;23125;48.156;15.954;2023-07-31T07:51:36;4.45;;;1.08;;
37231;SDS011;23125;48.156;15.954;2023-07-31T07:54:02;4.47;;;1.23;;
37231;SDS011;23125;48.156;15.954;2023-07-31T07:56:28;2.45;;;0.80;;
37231;SDS011;23125;48.156;15.954;2023-07-31T07:58:54;3.30;;;1.00;;
37231;SDS011;23125;48.156;15.954;2023-07-31T08:01:20;3.38;;;0.93;;
37231;SDS011;23125;48.156;15.954;2023-07-31T08:03:46;2.83;;;1.15;;
37231;SDS011;23125;48.156;15.954;2023-07-31T08:06:13;1.70;;;0.80;;
37231;SDS011;23125;48.156;15.954;2023-07-31T08:08:39;2.90;;;1.02;;
37231;SDS011;23125;48.156;15.954;2023-07-31T08:11:05;2.33;;;0.73;;
37231;SDS011;23125;48.156;15.954;2023-07-31T08:13:32;3.17;;;0.90;;
37231;SDS011;23125;48.156;15.954;2023-07-31T08:15:58;1.98;;;0.75;;
37231;SDS011;23125;48.156;15.954;2023-07-31T08:18:23;6.10;;;1.05;;
37231;SDS011;23125;48.156;15.954;2023-07-31T08:20:49;2.22;;;0.80;;
37231;SDS011;23125;48.156;15.954;2023-07-31T08:23:15;3.08;;;0.90;;
37231;SDS011;23125;48.156;15.954;2023-07-31T08:25:41;3.35;;;1.05;;
37231;SDS011;23125;48.156;15.954;2023-07-31T08:28:07;2.88;;;0.90;;
37231;SDS011;23125;48.156;15.954;2023-07-31T08:30:33;3.38;;;0.85;;
37231;SDS011;23125;48.156;15.954;2023-07-31T08:32:59;2.33;;;0.90;;
37231;SDS011;23125;48.156;15.954;2023-07-31T08:35:26;2.78;;;0.90;;
37231;SDS011;23125;48.156;15.954;2023-07-31T08:37:55;3.25;;;1.00;;
37231;SDS011;23125;48.156;15.954;2023-07-31T08:40:21;3.38;;;0.90;;
37231;SDS011;23125;48.156;15.954;2023-07-31T08:42:47;1.85;;;0.95;;
37231;SDS011;23125;48.156;15.954;2023-07-31T08:45:14;3.35;;;1.00;;
37231;SDS011;23125;48.156;15.954;2023-07-31T08:47:45;3.70;;;0.75;;
37231;SDS011;23125;48.156;15.954;2023-07-31T08:50:13;2.33;;;0.80;;
37231;SDS011;23125;48.156;15.954;2023-07-31T08:52:40;2.58;;;1.17;;
37231;SDS011;23125;48.156;15.954;2023-07-31T08:55:06;3.10;;;1.00;;
37231;SDS011;23125;48.156;15.954;2023-07-31T08:57:34;2.97;;;0.70;;
37231;SDS011;23125;48.156;15.954;2023-07-31T09:00:02;3.65;;;0.85;;
37231;SDS011;23125;48.156;15.954;2023-07-31T09:02:46;3.15;;;0.90;;
37231;SDS011;23125;48.156;15.954;2023-07-31T09:05:26;2.30;;;0.85;;
37231;SDS011;23125;48.156;15.954;2023-07-31T09:07:53;2.63;;;0.80;;
37231;SDS011;23125;48.156;15.954;2023-07-31T09:10:22;2.47;;;0.80;;
37231;SDS011;23125;48.156;15.954;2023-07-31T09:12:48;3.00;;;0.73;;
37231;SDS011;23125;48.156;15.954;2023-07-31T09:15:16;2.58;;;0.80;;
37231;SDS011;23125;48.156;15.954;2023-07-31T09:17:42;1.15;;;0.70;;
37231;SDS011;23125;48.156;15.954;2023-07-31T09:20:17;4.38;;;1.38;;
37231;SDS011;23125;48.156;15.954;2023-07-31T09:22:46;2.08;;;0.75;;
37231;SDS011;23125;48.156;15.954;2023-07-31T09:25:21;4.15;;;0.98;;
37231;SDS011;23125;48.156;15.954;2023-07-31T09:30:24;1.10;;;0.60;;
37231;SDS011;23125;48.156;15.954;2023-07-31T09:32:51;2.80;;;0.90;;
37231;SDS011;23125;48.156;15.954;2023-07-31T09:35:31;4.80;;;0.80;;
37231;SDS011;23125;48.156;15.954;2023-07-31T09:38:00;2.42;;;1.00;;
37231;SDS011;23125;48.156;15.954;2023-07-31T09:40:31;3.50;;;0.93;;
37231;SDS011;23125;48.156;15.954;2023-07-31T09:43:03;2.03;;;0.73;;
37231;SDS011;23125;48.156;15.954;2023-07-31T09:45:34;0.90;;;0.47;;
37231;SDS011;23125;48.156;15.954;2023-07-31T09:48:10;2.45;;;1.10;;
37231;SDS011;23125;48.156;15.954;2023-07-31T09:50:46;3.38;;;0.88;;
37231;SDS011;23125;48.156;15.954;2023-07-31T09:53:13;2.33;;;0.85;;
37231;SDS011;23125;48.156;15.954;2023-07-31T09:55:43;2.03;;;0.65;;
37231;SDS011;23125;48.156;15.954;2023-07-31T09:58:10;3.20;;;0.80;;
37231;SDS011;23125;48.156;15.954;2023-07-31T10:00:37;2.75;;;0.95;;
37231;SDS011;23125;48.156;15.954;2023-07-31T10:03:07;2.15;;;0.70;;
37231;SDS011;23125;48.156;15.954;2023-07-31T10:05:35;2.47;;;1.02;;
37231;SDS011;23125;48.156;15.954;2023-07-31T10:08:08;2.05;;;0.77;;
37231;SDS011;23125;48.156;15.954;2023-07-31T10:10:35;1.90;;;0.60;;
37231;SDS011;23125;48.156;15.954;2023-07-31T10:13:02;1.85;;;0.80;;
37231;SDS011;23125;48.156;15.954;2023-07-31T10:15:30;2.30;;;1.02;;
37231;SDS011;23125;48.156;15.954;2023-07-31T10:17:57;1.80;;;0.60;;
37231;SDS011;23125;48.156;15.954;2023-07-31T10:20:24;2.10;;;0.90;;
37231;SDS011;23125;48.156;15.954;2023-07-31T10:22:53;2.83;;;1.05;;
37231;SDS011;23125;48.156;15.954;2023-07-31T10:25:20;2.67;;;1.20;;
37231;SDS011;23125;48.156;15.954;2023-07-31T10:27:48;1.67;;;0.70;;
37231;SDS011;23125;48.156;15.954;2023-07-31T10:30:17;4.25;;;1.20;;
37231;SDS011;23125;48.156;15.954;2023-07-31T10:32:45;2.95;;;1.00;;
37231;SDS011;23125;48.156;15.954;2023-07-31T10:35:15;3.47;;;1.00;;
37231;SDS011;23125;48.156;15.954;2023-07-31T10:37:42;1.95;;;0.77;;
37231;SDS011;23125;48.156;15.954;2023-07-31T10:40:13;3.28;;;0.82;;
37231;SDS011;23125;48.156;15.954;2023-07-31T10:45:14;1.70;;;0.95;;
37231;SDS011;23125;48.156;15.954;2023-07-31T10:50:30;3.17;;;0.90;;
37231;SDS011;23125;48.156;15.954;2023-07-31T10:52:59;2.53;;;1.00;;
37231;SDS011;23125;48.156;15.954;2023-07-31T10:55:30;1.98;;;0.80;;
37231;SDS011;23125;48.156;15.954;2023-07-31T10:57:58;2.10;;;0.98;;
37231;SDS011;23125;48.156;15.954;2023-07-31T11:00:34;1.92;;;1.00;;
37231;SDS011;23125;48.156;15.954;2023-07-31T11:10:40;1.75;;;0.93;;
37231;SDS011;23125;48.156;15.954;2023-07-31T11:13:07;2.67;;;0.80;;
37231;SDS011;23125;48.156;15.954;2023-07-31T11:15:33;1.70;;;1.05;;
37231;SDS011;23125;48.156;15.954;2023-07-31T11:18:00;4.78;;;1.23;;
37231;SDS011;23125;48.156;15.954;2023-07-31T11:20:32;2.58;;;1.00;;
37231;SDS011;23125;48.156;15.954;2023-07-31T11:22:59;2.97;;;1.08;;
37231;SDS011;23125;48.156;15.954;2023-07-31T11:25:31;1.77;;;0.90;;
37231;SDS011;23125;48.156;15.954;2023-07-31T11:28:04;1.70;;;0.95;;
37231;SDS011;23125;48.156;15.954;2023-07-31T11:30:31;3.40;;;1.10;;
37231;SDS011;23125;48.156;15.954;2023-07-31T11:32:57;1.52;;;0.85;;
37231;SDS011;23125;48.156;15.954;2023-07-31T11:35:23;2.25;;;1.25;;
37231;SDS011;23125;48.156;15.954;2023-07-31T11:37:49;1.95;;;0.80;;
37231;SDS011;23125;48.156;15.954;2023-07-31T11:40:16;1.08;;;0.65;;
37231;SDS011;23125;48.156;15.954;2023-07-31T11:42:43;1.95;;;0.98;;
37231;SDS011;23125;48.156;15.954;2023-07-31T11:45:09;3.58;;;1.20;;
37231;SDS011;23125;48.156;15.954;2023-07-31T11:47:36;1.33;;;0.90;;
37231;SDS011;23125;48.156;15.954;2023-07-31T11:50:06;2.25;;;1.33;;
37231;SDS011;23125;48.156;15.954;2023-07-31T11:52:39;2.72;;;1.20;;
37231;SDS011;23125;48.156;15.954;2023-07-31T11:55:07;1.92;;;1.00;;
37231;SDS011;23125;48.156;15.954;2023-07-31T11:57:36;1.40;;;1.08;;
37231;SDS011;23125;48.156;15.954;2023-07-31T12:00:09;2.38;;;1.10;;
37231;SDS011;23125;48.156;15.954;2023-07-31T12:02:38;2.78;;;0.93;;
37231;SDS011;23125;48.156;15.954;2023-07-31T12:05:13;1.77;;;1.00;;
37231;SDS011;23125;48.156;15.954;2023-07-31T12:10:27;2.03;;;0.80;;
37231;SDS011;23125;48.156;15.954;2023-07-31T12:12:56;1.98;;;1.30;;
37231;SDS011;23125;48.156;15.954;2023-07-31T12:16:00;2.63;;;1.00;;
37231;SDS011;23125;48.156;15.954;2023-07-31T12:18:20;2.70;;;1.13;;
37231;SDS011;23125;48.156;15.954;2023-07-31T12:20:47;2.50;;;1.00;;
37231;SDS011;23125;48.156;15.954;2023-07-31T12:23:15;2.10;;;0.90;;
37231;SDS011;23125;48.156;15.954;2023-07-31T12:25:42;3.00;;;1.10;;
37231;SDS011;23125;48.156;15.954;2023-07-31T12:28:08;1.38;;;0.90;;
37231;SDS011;23125;48.156;15.954;2023-07-31T12:30:38;2.58;;;0.90;;
37231;SDS011;23125;48.156;15.954;2023-07-31T12:33:06;3.08;;;1.10;;
37231;SDS011;23125;48.156;15.954;2023-07-31T12:35:37;1.90;;;0.88;;
37231;SDS011;23125;48.156;15.954;2023-07-31T12:38:05;2.75;;;1.05;;
37231;SDS011;23125;48.156;15.954;2023-07-31T12:40:32;2.28;;;1.20;;
37231;SDS011;23125;48.156;15.954;2023-07-31T12:43:00;1.77;;;0.85;;
37231;SDS011;23125;48.156;15.954;2023-07-31T12:45:28;2.33;;;1.30;;
37231;SDS011;23125;48.156;15.954;2023-07-31T12:47:56;2.85;;;0.90;;
37231;SDS011;23125;48.156;15.954;2023-07-31T12:50:22;2.45;;;1.25;;
37231;SDS011;23125;48.156;15.954;2023-07-31T12:52:49;3.35;;;1.33;;
